Time;durP1;ratioP1;P1;durP2;ratioP2;P2;SDS_P1;SDS_P2;PMS_P1;PMS_P2;Temp;Humidity;BMP_temperature;BMP_pressure;BME280_temperature;BME280_humidity;BME280_pressure;Samples;Min_cycle;Max_cycle;Signal;HPM_P1;HPM_P2
2022/06/10 00:02:53;;;;;;;2.60;1.70;;;;;;;;;;10456713;28;20041;-76
2022/06/10 00:07:56;;;;;;;2.35;1.60;;;;;;;;;;10424403;28;20045;-76
2022/06/10 00:13:00;;;;;;;1.33;1.20;;;;;;;;;;10431646;28;20033;-75
2022/06/10 00:18:04;;;;;;;3.70;2.10;;;;;;;;;;10449509;28;20029;-76
2022/06/10 00:23:13;;;;;;;2.80;1.90;;;;;;;;;;10444602;28;20464;-77
2022/06/10 00:28:16;;;;;;;3.22;1.38;;;;;;;;;;10442237;28;20032;-76
2022/06/10 00:33:21;;;;;;;3.10;1.80;;;;;;;;;;10441735;28;20114;-77
2022/06/10 00:38:25;;;;;;;4.25;1.73;;;;;;;;;;10426944;28;20029;-77
2022/06/10 00:43:30;;;;;;;2.93;1.20;;;;;;;;;;10443701;28;20045;-75
2022/06/10 00:48:38;;;;;;;2.97;1.80;;;;;;;;;;10456804;28;20099;-75
2022/06/10 00:53:40;;;;;;;4.38;1.92;;;;;;;;;;10447598;28;20035;-75
2022/06/10 00:58:47;;;;;;;6.03;1.80;;;;;;;;;;10458140;28;20040;-75
2022/06/10 01:04:00;;;;;;;2.95;1.77;;;;;;;;;;10415252;28;20045;-75
2022/06/10 01:09:03;;;;;;;4.07;2.03;;;;;;;;;;10442890;28;20049;-76
2022/06/10 01:14:14;;;;;;;6.93;2.08;;;;;;;;;;10444738;28;20417;-77
2022/06/10 01:19:47;;;;;;;3.90;1.85;;;;;;;;;;10434521;28;20491;-75
2022/06/10 01:25:26;;;;;;;2.08;1.30;;;;;;;;;;10454480;28;20263;-75
2022/06/10 01:30:45;;;;;;;4.45;1.98;;;;;;;;;;10444007;28;20407;-75
2022/06/10 01:35:54;;;;;;;3.90;1.70;;;;;;;;;;10446209;28;20049;-75
2022/06/10 01:41:03;;;;;;;2.30;1.08;;;;;;;;;;10438668;28;20049;-74
2022/06/10 01:46:10;;;;;;;2.17;1.50;;;;;;;;;;10433773;28;20060;-75
2022/06/10 01:51:16;;;;;;;2.00;1.55;;;;;;;;;;10454615;28;20425;-73
2022/06/10 01:56:22;;;;;;;5.82;1.70;;;;;;;;;;10442526;28;20115;-77
2022/06/10 02:01:29;;;;;;;2.42;1.70;;;;;;;;;;10435824;28;20576;-76
2022/06/10 02:06:35;;;;;;;3.47;1.67;;;;;;;;;;10452890;28;20308;-76
2022/06/10 02:11:41;;;;;;;5.25;2.00;;;;;;;;;;10426093;28;20505;-74
2022/06/10 02:17:05;;;;;;;3.72;1.48;;;;;;;;;;10450140;28;20029;-75
2022/06/10 02:22:13;;;;;;;3.65;1.50;;;;;;;;;;10459152;28;20052;-75
2022/06/10 02:27:17;;;;;;;2.90;1.63;;;;;;;;;;10435242;28;20114;-75
2022/06/10 02:32:21;;;;;;;2.38;1.60;;;;;;;;;;10444178;28;20079;-74
2022/06/10 02:37:31;;;;;;;1.55;1.00;;;;;;;;;;10451001;28;20065;-74
2022/06/10 02:42:37;;;;;;;6.20;1.13;;;;;;;;;;10451750;28;20564;-77
2022/06/10 02:47:49;;;;;;;4.15;1.70;;;;;;;;;;10444345;28;20029;-77
2022/06/10 02:52:52;;;;;;;2.78;1.38;;;;;;;;;;10457980;28;20278;-74
2022/06/10 03:03:21;;;;;;;1.48;0.90;;;;;;;;;;10426080;28;19978;-76
2022/06/10 03:08:26;;;;;;;4.88;2.10;;;;;;;;;;10441816;28;20040;-75
2022/06/10 03:13:36;;;;;;;3.95;1.80;;;;;;;;;;10437249;28;20079;-76
2022/06/10 03:18:47;;;;;;;2.97;1.70;;;;;;;;;;10425247;28;20060;-74
2022/06/10 03:23:59;;;;;;;2.05;1.27;;;;;;;;;;10450491;28;20124;-76
2022/06/10 03:29:08;;;;;;;2.20;1.23;;;;;;;;;;10448150;28;20621;-75
2022/06/10 03:34:19;;;;;;;6.15;1.88;;;;;;;;;;10423641;28;20049;-74
2022/06/10 03:39:22;;;;;;;3.80;1.30;;;;;;;;;;10440796;28;20038;-75
2022/06/10 03:44:26;;;;;;;2.17;1.40;;;;;;;;;;10452780;28;20506;-79
2022/06/10 03:49:34;;;;;;;3.90;1.50;;;;;;;;;;10427725;28;20043;-76
2022/06/10 03:54:38;;;;;;;2.00;1.58;;;;;;;;;;10443066;28;20044;-76
2022/06/10 03:59:40;;;;;;;4.13;1.70;;;;;;;;;;10426932;28;20119;-75
2022/06/10 04:04:45;;;;;;;3.45;1.70;;;;;;;;;;10433115;28;20468;-76
2022/06/10 04:09:47;;;;;;;4.03;1.52;;;;;;;;;;10421070;28;20036;-78
2022/06/10 04:14:50;;;;;;;2.95;1.35;;;;;;;;;;10418554;28;20259;-75
2022/06/10 04:20:01;;;;;;;2.80;1.70;;;;;;;;;;10439648;28;20499;-77
2022/06/10 04:25:04;;;;;;;3.42;1.50;;;;;;;;;;10425477;28;20039;-75
2022/06/10 04:30:08;;;;;;;3.67;1.67;;;;;;;;;;10408360;28;20108;-75
2022/06/10 04:35:12;;;;;;;3.08;1.40;;;;;;;;;;10412116;28;20418;-76
2022/06/10 04:40:16;;;;;;;6.13;1.90;;;;;;;;;;10426619;28;20037;-75
2022/06/10 04:45:22;;;;;;;3.08;1.27;;;;;;;;;;10409104;28;20090;-77
2022/06/10 04:50:28;;;;;;;3.42;1.33;;;;;;;;;;10428702;28;20033;-76
2022/06/10 04:55:30;;;;;;;3.67;1.60;;;;;;;;;;10412086;28;20084;-76
2022/06/10 05:00:34;;;;;;;3.27;1.70;;;;;;;;;;10429409;28;20044;-75
2022/06/10 05:05:38;;;;;;;3.83;1.58;;;;;;;;;;10417603;28;20047;-75
2022/06/10 05:10:41;;;;;;;3.83;1.90;;;;;;;;;;10432832;28;20414;-73
2022/06/10 05:15:44;;;;;;;4.43;1.90;;;;;;;;;;10434718;28;20038;-75
2022/06/10 05:20:49;;;;;;;4.63;1.92;;;;;;;;;;10437021;28;20037;-75
2022/06/10 05:25:53;;;;;;;6.22;2.08;;;;;;;;;;10429405;28;20140;-76
2022/06/10 05:30:55;;;;;;;4.53;1.52;;;;;;;;;;10435000;28;20140;-77
2022/06/10 05:36:00;;;;;;;2.10;1.27;;;;;;;;;;10408380;28;20604;-76
2022/06/10 05:42:04;;;;;;;4.53;1.77;;;;;;;;;;10422753;28;20470;-77
2022/06/10 05:46:26;;;;;;;4.85;1.45;;;;;;;;;;10417597;28;20047;-76
2022/06/10 05:51:30;;;;;;;2.53;1.10;;;;;;;;;;10435668;28;20046;-76
2022/06/10 05:56:33;;;;;;;3.53;1.80;;;;;;;;;;10449647;28;20041;-77
2022/06/10 06:01:36;;;;;;;3.63;1.70;;;;;;;;;;10444179;28;20452;-75
2022/06/10 06:06:40;;;;;;;4.90;1.63;;;;;;;;;;10428634;28;20041;-76
2022/06/10 06:11:43;;;;;;;2.45;1.67;;;;;;;;;;10448106;28;20323;-77
2022/06/10 06:16:50;;;;;;;4.68;1.40;;;;;;;;;;10413073;28;20132;-76
2022/06/10 06:21:54;;;;;;;7.78;1.90;;;;;;;;;;10418209;28;20076;-75
2022/06/10 06:26:56;;;;;;;5.63;1.58;;;;;;;;;;10415246;28;20726;-76
2022/06/10 06:31:59;;;;;;;3.20;1.77;;;;;;;;;;10418083;28;20479;-76
2022/06/10 06:37:03;;;;;;;4.30;1.65;;;;;;;;;;10418922;28;20505;-78
2022/06/10 06:42:07;;;;;;;4.07;2.10;;;;;;;;;;10413924;28;20045;-76
2022/06/10 06:47:12;;;;;;;3.50;1.77;;;;;;;;;;10423168;28;20110;-77
2022/06/10 06:52:16;;;;;;;3.33;1.67;;;;;;;;;;10434202;28;20328;-75
2022/06/10 06:57:20;;;;;;;4.40;2.10;;;;;;;;;;10410012;28;20446;-79
2022/06/10 07:02:22;;;;;;;4.45;1.98;;;;;;;;;;10439153;28;20080;-77
2022/06/10 07:07:27;;;;;;;3.33;2.05;;;;;;;;;;10437228;28;20259;-73
2022/06/10 07:12:31;;;;;;;4.82;2.30;;;;;;;;;;10419221;28;20071;-77
2022/06/10 07:17:33;;;;;;;4.30;2.35;;;;;;;;;;10449985;28;20540;-76
2022/06/10 07:22:37;;;;;;;3.70;2.13;;;;;;;;;;10443128;28;20045;-75
2022/06/10 07:27:40;;;;;;;11.50;2.70;;;;;;;;;;10415169;28;20037;-76
2022/06/10 07:32:44;;;;;;;4.03;2.10;;;;;;;;;;10430636;28;20033;-74
2022/06/10 07:37:50;;;;;;;5.43;2.60;;;;;;;;;;10411277;28;20445;-74
2022/06/10 07:42:53;;;;;;;3.97;2.15;;;;;;;;;;10429694;28;20060;-76
2022/06/10 07:47:55;;;;;;;3.60;2.20;;;;;;;;;;10430771;28;20061;-76
2022/06/10 07:52:59;;;;;;;4.38;2.30;;;;;;;;;;10413872;28;20073;-77
2022/06/10 07:58:02;;;;;;;4.72;2.95;;;;;;;;;;10430965;28;20041;-77
2022/06/10 08:03:06;;;;;;;4.88;2.45;;;;;;;;;;10409353;28;20068;-76
2022/06/10 08:08:13;;;;;;;7.53;2.80;;;;;;;;;;10406251;28;20393;-76
2022/06/10 08:13:15;;;;;;;5.80;3.03;;;;;;;;;;10417856;28;20116;-76
2022/06/10 08:18:20;;;;;;;4.45;2.75;;;;;;;;;;10401313;28;20068;-76
2022/06/10 08:23:24;;;;;;;6.35;2.60;;;;;;;;;;10417567;28;20041;-76
2022/06/10 08:28:28;;;;;;;4.43;2.58;;;;;;;;;;10408990;28;20045;-76
2022/06/10 08:33:31;;;;;;;3.65;2.80;;;;;;;;;;10430608;28;20073;-73
2022/06/10 08:38:35;;;;;;;4.95;2.95;;;;;;;;;;10423167;28;20045;-77
2022/06/10 08:43:56;;;;;;;4.32;2.78;;;;;;;;;;10433352;28;20045;-75
2022/06/10 08:49:17;;;;;;;6.05;3.22;;;;;;;;;;10433081;28;20419;-73
2022/06/10 08:54:25;;;;;;;3.72;2.50;;;;;;;;;;10416048;28;20139;-76
2022/06/10 08:59:29;;;;;;;4.28;2.92;;;;;;;;;;10413145;28;20045;-75
2022/06/10 09:04:38;;;;;;;7.45;3.33;;;;;;;;;;10432927;28;20041;-76
2022/06/10 09:09:45;;;;;;;5.93;2.90;;;;;;;;;;10425117;28;20429;-75
2022/06/10 09:14:49;;;;;;;6.10;3.17;;;;;;;;;;10416795;28;20411;-75
2022/06/10 09:19:56;;;;;;;6.72;3.53;;;;;;;;;;10431360;28;20060;-76
2022/06/10 09:25:05;;;;;;;3.78;2.88;;;;;;;;;;10410584;28;20140;-76
2022/06/10 09:30:09;;;;;;;6.15;3.67;;;;;;;;;;10435371;28;20053;-77
2022/06/10 09:35:15;;;;;;;5.60;3.22;;;;;;;;;;10435222;28;20037;-75
2022/06/10 09:40:38;;;;;;;6.45;3.47;;;;;;;;;;10408483;28;20065;-76
2022/06/10 09:45:46;;;;;;;4.38;3.30;;;;;;;;;;10415789;28;20048;-75
2022/06/10 09:50:52;;;;;;;4.22;2.42;;;;;;;;;;10420517;28;20584;-77
2022/06/10 09:56:24;;;;;;;5.55;2.50;;;;;;;;;;10430155;28;20033;-76
2022/06/10 10:01:31;;;;;;;6.60;3.40;;;;;;;;;;10416461;28;20114;-77
2022/06/10 10:06:36;;;;;;;7.18;3.13;;;;;;;;;;10434863;28;20033;-77
2022/06/10 10:11:45;;;;;;;4.70;3.03;;;;;;;;;;10420777;28;20045;-76
2022/06/10 10:16:57;;;;;;;4.13;3.35;;;;;;;;;;10415171;28;20037;-77
2022/06/10 10:22:06;;;;;;;3.60;3.30;;;;;;;;;;10414694;28;20129;-75
2022/06/10 10:27:17;;;;;;;4.30;2.50;;;;;;;;;;10412233;28;20132;-77
2022/06/10 10:32:21;;;;;;;6.22;2.85;;;;;;;;;;10409384;28;20473;-76
2022/06/10 10:37:26;;;;;;;4.25;2.47;;;;;;;;;;10406279;28;20052;-76
2022/06/10 10:42:37;;;;;;;3.90;2.40;;;;;;;;;;10412910;28;20041;-76
2022/06/10 10:47:47;;;;;;;4.88;3.22;;;;;;;;;;10417399;28;20106;-75
2022/06/10 10:52:50;;;;;;;5.60;3.10;;;;;;;;;;10401577;28;20121;-76
2022/06/10 10:58:00;;;;;;;6.55;3.10;;;;;;;;;;10428869;28;20079;-77
2022/06/10 11:03:03;;;;;;;4.53;3.10;;;;;;;;;;10423718;28;20160;-74
2022/06/10 11:08:18;;;;;;;4.03;3.00;;;;;;;;;;10414307;28;20037;-76
2022/06/10 11:13:27;;;;;;;4.75;3.03;;;;;;;;;;10408708;28;20049;-76
2022/06/10 11:18:30;;;;;;;5.00;3.00;;;;;;;;;;10403608;28;20545;-76
2022/06/10 11:23:33;;;;;;;7.53;2.85;;;;;;;;;;10421479;28;20036;-76
2022/06/10 11:28:39;;;;;;;4.53;3.13;;;;;;;;;;10422763;28;20076;-76
2022/06/10 11:33:45;;;;;;;7.38;2.80;;;;;;;;;;10419312;28;20045;-76
2022/06/10 11:38:50;;;;;;;7.10;2.70;;;;;;;;;;10417554;28;20094;-76
2022/06/10 11:43:56;;;;;;;5.07;2.70;;;;;;;;;;10413687;28;20045;-76
2022/06/10 11:49:06;;;;;;;3.90;3.00;;;;;;;;;;10423757;28;20044;-76
2022/06/10 11:54:15;;;;;;;3.10;2.70;;;;;;;;;;10419516;28;20068;-76
2022/06/10 11:59:46;;;;;;;6.75;2.60;;;;;;;;;;10400501;28;20041;-76
2022/06/10 12:04:55;;;;;;;4.30;2.50;;;;;;;;;;10423650;28;20116;-76
2022/06/10 12:10:01;;;;;;;4.20;2.58;;;;;;;;;;10421536;28;20101;-75
2022/06/10 12:15:15;;;;;;;4.50;2.30;;;;;;;;;;10428456;28;20120;-77
2022/06/10 12:20:21;;;;;;;2.95;2.20;;;;;;;;;;10413475;28;20110;-77
2022/06/10 12:25:28;;;;;;;3.05;2.50;;;;;;;;;;10429464;28;20037;-75
2022/06/10 12:30:35;;;;;;;4.95;2.53;;;;;;;;;;10417836;28;20421;-77
2022/06/10 12:35:39;;;;;;;3.10;2.10;;;;;;;;;;10420202;28;20502;-76
2022/06/10 12:40:45;;;;;;;3.10;2.25;;;;;;;;;;10415848;28;20037;-76
2022/06/10 12:45:51;;;;;;;3.92;2.30;;;;;;;;;;10402798;28;20126;-76
2022/06/10 12:50:58;;;;;;;6.50;1.90;;;;;;;;;;10423187;28;20110;-77
2022/06/10 12:56:01;;;;;;;6.15;3.35;;;;;;;;;;10455543;28;20041;-77
2022/06/10 13:01:13;;;;;;;6.50;2.30;;;;;;;;;;10445140;28;20488;-78
2022/06/10 13:06:34;;;;;;;3.08;1.90;;;;;;;;;;10450332;28;20128;-76
2022/06/10 13:11:38;;;;;;;5.90;2.75;;;;;;;;;;10446748;28;20067;-74
2022/06/10 13:16:43;;;;;;;3.20;2.45;;;;;;;;;;10460876;28;20049;-76
2022/06/10 13:21:46;;;;;;;2.70;2.20;;;;;;;;;;10435124;28;20460;-76
2022/06/10 13:26:50;;;;;;;3.08;1.98;;;;;;;;;;10437895;28;20119;-76
2022/06/10 13:31:55;;;;;;;3.08;1.90;;;;;;;;;;10448912;28;20035;-77
2022/06/10 13:36:59;;;;;;;4.28;2.33;;;;;;;;;;10406225;28;20080;-76
2022/06/10 13:42:03;;;;;;;2.63;2.20;;;;;;;;;;10406740;28;20037;-74
2022/06/10 13:47:19;;;;;;;3.17;2.20;;;;;;;;;;10424542;28;20128;-78
2022/06/10 13:52:27;;;;;;;2.22;1.83;;;;;;;;;;10429567;28;20041;-77
2022/06/10 13:57:30;;;;;;;2.88;2.03;;;;;;;;;;10418540;28;20069;-77
2022/06/10 14:02:38;;;;;;;2.58;1.80;;;;;;;;;;10438044;28;20041;-77
2022/06/10 14:07:41;;;;;;;2.38;1.90;;;;;;;;;;10409491;28;20394;-76
2022/06/10 14:12:53;;;;;;;3.00;2.10;;;;;;;;;;10443369;28;20040;-75
2022/06/10 14:17:58;;;;;;;6.07;2.50;;;;;;;;;;10450873;28;20471;-75
2022/06/10 14:23:01;;;;;;;2.95;2.05;;;;;;;;;;10425686;28;20513;-77
2022/06/10 14:28:11;;;;;;;4.90;2.85;;;;;;;;;;10439208;28;20057;-77
2022/06/10 14:33:18;;;;;;;3.67;1.85;;;;;;;;;;10411197;28;20110;-76
2022/06/10 14:38:22;;;;;;;3.75;2.22;;;;;;;;;;10408604;28;20080;-77
2022/06/10 14:43:25;;;;;;;5.05;2.40;;;;;;;;;;10439994;28;20044;-76
2022/06/10 14:48:31;;;;;;;3.17;2.10;;;;;;;;;;10414734;28;20047;-77
2022/06/10 14:53:33;;;;;;;5.63;2.60;;;;;;;;;;10437016;28;20037;-77
2022/06/10 14:58:36;;;;;;;3.83;2.22;;;;;;;;;;10437336;28;20142;-74
2022/06/10 15:03:41;;;;;;;4.32;2.15;;;;;;;;;;10427048;28;20028;-76
2022/06/10 15:08:46;;;;;;;4.28;2.40;;;;;;;;;;10438940;28;20123;-75
2022/06/10 15:13:49;;;;;;;4.90;2.05;;;;;;;;;;10415327;28;20035;-77
2022/06/10 15:18:53;;;;;;;5.28;1.98;;;;;;;;;;10427831;28;20063;-77
2022/06/10 15:23:58;;;;;;;4.40;2.63;;;;;;;;;;10429410;28;20226;-77
2022/06/10 15:29:00;;;;;;;3.38;2.03;;;;;;;;;;10417182;28;20086;-74
2022/06/10 15:34:05;;;;;;;3.40;2.40;;;;;;;;;;10429707;28;20052;-80
2022/06/10 15:44:37;;;;;;;3.80;1.58;;;;;;;;;;10426840;28;20435;-75
2022/06/10 15:49:42;;;;;;;4.45;2.28;;;;;;;;;;10392135;28;20409;-77
2022/06/10 16:00:09;;;;;;;7.27;2.80;;;;;;;;;;10412717;28;20483;-77
2022/06/10 16:05:17;;;;;;;3.55;2.30;;;;;;;;;;10418364;28;20486;-77
2022/06/10 16:10:20;;;;;;;7.20;2.40;;;;;;;;;;10419737;28;20049;-76
2022/06/10 16:15:24;;;;;;;4.72;2.55;;;;;;;;;;10424098;28;20477;-76
2022/06/10 16:20:31;;;;;;;2.35;1.35;;;;;;;;;;10436226;28;20098;-80
2022/06/10 16:25:34;;;;;;;2.58;1.58;;;;;;;;;;10421407;28;20041;-78
2022/06/10 16:30:37;;;;;;;5.32;2.42;;;;;;;;;;10411830;28;20045;-73
2022/06/10 16:35:41;;;;;;;5.30;2.83;;;;;;;;;;10394960;28;20061;-77
2022/06/10 16:40:44;;;;;;;5.18;2.60;;;;;;;;;;10422039;28;20038;-77
2022/06/10 16:45:47;;;;;;;;;;;;;;;;;;10403765;28;20065;-76
2022/06/10 16:50:52;;;;;;;5.60;2.17;;;;;;;;;;10427910;28;19968;-79
2022/06/10 16:56:17;;;;;;;5.45;2.28;;;;;;;;;;10406465;28;20485;-75
2022/06/10 17:01:23;;;;;;;3.03;1.85;;;;;;;;;;10411791;28;20053;-77
2022/06/10 17:06:27;;;;;;;2.25;1.23;;;;;;;;;;10417355;28;20525;-76
2022/06/10 17:11:32;;;;;;;2.45;1.25;;;;;;;;;;10407123;28;20135;-77
2022/06/10 17:16:37;;;;;;;6.78;3.00;;;;;;;;;;10414806;28;20088;-77
2022/06/10 17:21:42;;;;;;;4.45;2.53;;;;;;;;;;10409581;28;20445;-77
2022/06/10 17:26:46;;;;;;;3.30;2.15;;;;;;;;;;10411452;28;20048;-75
2022/06/10 17:31:49;;;;;;;3.88;1.50;;;;;;;;;;10411154;28;20747;-77
2022/06/10 17:36:56;;;;;;;4.45;2.10;;;;;;;;;;10441620;28;20468;-77
2022/06/10 17:41:59;;;;;;;5.18;1.92;;;;;;;;;;10411970;28;20095;-76
2022/06/10 17:47:03;;;;;;;5.03;2.40;;;;;;;;;;10437787;28;20037;-76
2022/06/10 17:52:08;;;;;;;6.43;2.90;;;;;;;;;;10418659;28;20107;-77
2022/06/10 17:57:20;;;;;;;7.93;3.08;;;;;;;;;;10416793;28;20094;-77
2022/06/10 18:02:26;;;;;;;3.93;1.97;;;;;;;;;;10441889;28;20044;-75
2022/06/10 18:07:30;;;;;;;4.97;2.40;;;;;;;;;;10417412;28;20065;-75
2022/06/10 18:12:33;;;;;;;6.00;2.40;;;;;;;;;;10427815;28;20488;-74
2022/06/10 18:17:37;;;;;;;4.00;2.58;;;;;;;;;;10431572;28;20068;-76
2022/06/10 18:23:01;;;;;;;5.15;2.72;;;;;;;;;;10409888;28;20043;-76
2022/06/10 18:28:10;;;;;;;2.42;1.80;;;;;;;;;;10417738;28;20053;-76
2022/06/10 18:33:16;;;;;;;6.82;2.90;;;;;;;;;;10437653;28;20036;-77
2022/06/10 18:38:21;;;;;;;7.68;3.95;;;;;;;;;;10440224;28;20587;-76
2022/06/10 18:43:29;;;;;;;6.53;2.95;;;;;;;;;;10455758;28;20098;-75
2022/06/10 18:48:35;;;;;;;5.57;3.03;;;;;;;;;;10435778;28;20451;-75
2022/06/10 18:53:39;;;;;;;7.20;2.75;;;;;;;;;;10436493;28;20447;-75
2022/06/10 18:58:42;;;;;;;6.22;3.35;;;;;;;;;;10440945;28;20461;-76
2022/06/10 19:03:45;;;;;;;7.85;2.97;;;;;;;;;;10425219;28;20516;-78
2022/06/10 19:08:50;;;;;;;5.57;3.15;;;;;;;;;;10413134;28;20116;-77
2022/06/10 19:13:53;;;;;;;5.10;2.72;;;;;;;;;;10431237;28;20065;-77
2022/06/10 19:18:58;;;;;;;8.85;3.90;;;;;;;;;;10432640;28;20140;-77
2022/06/10 19:24:03;;;;;;;8.93;3.80;;;;;;;;;;10429112;28;20036;-76
2022/06/10 19:29:07;;;;;;;7.50;3.20;;;;;;;;;;10433033;28;20039;-76
2022/06/10 19:34:15;;;;;;;6.03;3.63;;;;;;;;;;10431623;28;20044;-78
2022/06/10 19:39:22;;;;;;;9.82;3.75;;;;;;;;;;10427899;28;20529;-75
2022/06/10 19:44:36;;;;;;;9.70;4.43;;;;;;;;;;10428187;28;20101;-77
2022/06/10 19:49:39;;;;;;;8.40;4.03;;;;;;;;;;10419998;28;20452;-75
2022/06/10 19:54:43;;;;;;;8.70;4.00;;;;;;;;;;10413325;28;20025;-76
2022/06/10 19:59:46;;;;;;;9.07;4.65;;;;;;;;;;10422296;28;20055;-75
2022/06/10 20:04:50;;;;;;;7.13;4.10;;;;;;;;;;10417769;28;20061;-76
2022/06/10 20:09:55;;;;;;;6.10;3.78;;;;;;;;;;10423209;28;20063;-76
2022/06/10 20:15:00;;;;;;;11.13;5.35;;;;;;;;;;10408869;28;20202;-76
2022/06/10 20:20:06;;;;;;;10.15;5.25;;;;;;;;;;10433799;28;20037;-76
2022/06/10 20:25:16;;;;;;;10.48;4.55;;;;;;;;;;10434594;28;20126;-74
2022/06/10 20:30:20;;;;;;;7.57;4.40;;;;;;;;;;10429479;28;20069;-76
2022/06/10 20:35:25;;;;;;;14.52;5.10;;;;;;;;;;10440770;28;20044;-77
2022/06/10 20:40:31;;;;;;;7.78;4.43;;;;;;;;;;10426865;28;20037;-74
2022/06/10 20:45:36;;;;;;;8.02;4.47;;;;;;;;;;10444124;28;20052;-76
2022/06/10 20:50:40;;;;;;;8.20;4.28;;;;;;;;;;10410552;28;20349;-75
2022/06/10 20:55:43;;;;;;;;;;;;;;;;;;10433145;28;20040;-75
2022/06/10 21:00:48;;;;;;;8.38;4.20;;;;;;;;;;10417128;28;20103;-76
2022/06/10 21:11:16;;;;;;;7.03;3.60;;;;;;;;;;10378659;28;20067;-76
2022/06/10 21:16:21;;;;;;;8.27;4.13;;;;;;;;;;10398085;28;20068;-76
2022/06/10 21:21:26;;;;;;;6.97;3.42;;;;;;;;;;10414427;28;20117;-75
2022/06/10 21:26:31;;;;;;;9.20;3.70;;;;;;;;;;10428315;28;20037;-77
2022/06/10 21:31:38;;;;;;;8.23;3.90;;;;;;;;;;10438510;28;20099;-76
2022/06/10 21:36:42;;;;;;;9.05;4.28;;;;;;;;;;10411143;28;20132;-77
2022/06/10 21:44:11;;;;;;;7.05;4.00;;;;;;;;;;10411477;28;20104;-75
2022/06/10 21:47:14;;;;;;;5.18;2.38;;;;;;;;;;10435452;28;20109;-77
2022/06/10 21:52:20;;;;;;;6.35;3.60;;;;;;;;;;10433635;28;20040;-75
2022/06/10 21:57:24;;;;;;;6.22;3.03;;;;;;;;;;10408261;28;20075;-77
2022/06/10 22:02:28;;;;;;;7.95;4.03;;;;;;;;;;10413452;28;20454;-77
2022/06/10 22:07:32;;;;;;;6.72;3.63;;;;;;;;;;10432725;28;20120;-76
2022/06/10 22:12:37;;;;;;;10.07;3.30;;;;;;;;;;10428652;28;20041;-75
2022/06/10 22:17:41;;;;;;;4.05;2.38;;;;;;;;;;10432736;28;20098;-76
2022/06/10 22:22:45;;;;;;;5.30;3.17;;;;;;;;;;10424687;28;20405;-75
2022/06/10 22:27:52;;;;;;;7.05;3.10;;;;;;;;;;10402033;28;20049;-76
2022/06/10 22:32:58;;;;;;;7.57;3.40;;;;;;;;;;10411547;28;21843;-76
2022/06/10 22:38:01;;;;;;;6.18;3.30;;;;;;;;;;10408985;28;20132;-75
2022/06/10 22:43:06;;;;;;;7.93;3.40;;;;;;;;;;10431717;28;20029;-75
2022/06/10 22:48:12;;;;;;;5.80;3.38;;;;;;;;;;10420399;28;20072;-75
2022/06/10 22:53:16;;;;;;;6.32;3.60;;;;;;;;;;10424629;28;20048;-76
2022/06/10 22:58:21;;;;;;;8.05;3.47;;;;;;;;;;10408008;28;20061;-75
2022/06/10 23:03:31;;;;;;;7.72;3.85;;;;;;;;;;10433011;28;20539;-76
2022/06/10 23:10:30;;;;;;;6.57;3.53;;;;;;;;;;10428420;28;20038;-76
2022/06/10 23:14:02;;;;;;;6.65;3.50;;;;;;;;;;10435684;28;20033;-75
2022/06/10 23:19:08;;;;;;;9.47;4.53;;;;;;;;;;10407078;28;20033;-75
2022/06/10 23:24:11;;;;;;;20.30;9.27;;;;;;;;;;10412337;28;20792;-75
2022/06/10 23:29:14;;;;;;;20.20;9.82;;;;;;;;;;10425162;28;20029;-76
2022/06/10 23:34:21;;;;;;;22.53;9.47;;;;;;;;;;10414135;28;20288;-75
2022/06/10 23:39:25;;;;;;;22.92;10.00;;;;;;;;;;10424693;28;20029;-75
2022/06/10 23:44:27;;;;;;;17.17;8.73;;;;;;;;;;10410752;28;20473;-75
